WARNING - Change wsUserSettings.php: $SITE["topfolder"] from : public_html./ to: ./
Iedere zaterdag na 11 uur op radio zuidwest.

Onweer radar Meer informatie blitzortung!


Regen radar Meer informatie rain snow radar


Bezoek onze andere website:

Template documentation
and downloads


U vindt ons ook hier:

Het Weer Aktueel

UK Metoffice

European Weather Network

WeatherCloud

Weather Underground

Austria Weather Network

AWEKAS

Citizen Weather Observer Program (CWOP)

HAMweather, WeatherForYou, PWS Weather

Wetterpage 24

Roosendaal nieuws

VWKWEB

RadioZuidWestFM



METAR rapporten vliegvelden

   
EHWO - Bergen op Zoom
Gewijzigd: 28-09-2022 15:40
Bewolking  
Bewolking  
   Wind: WNW 11.1 km/h
Wind: WNW 11.1 km/h
Temperatuur: 12°C
Dauwpunt: 9°C
Vochtigheid: 82%
Barometer: 998 hPa
Bewolking: Bewolking
Zicht: meer dan 10 km
Bewolking: Grotendeels bewolkt 5600 ft,
Bewolking 6100 ft
EHWO 281340Z AUTO 30006KT 260V340 9999 BKN056 OVC061 12/09 Q0998 BLU TEMPO FEW015 SCT020CB
EHWO - Woensdrecht
Gewijzigd: 28-09-2022 15:40
Bewolking  
Bewolking  
   Wind: WNW 11.1 km/h
Wind: WNW 11.1 km/h
Temperatuur: 12°C
Dauwpunt: 9°C
Vochtigheid: 82%
Barometer: 998 hPa
Bewolking: Bewolking
Zicht: meer dan 10 km
Bewolking: Grotendeels bewolkt 5600 ft,
Bewolking 6100 ft
EHWO 281340Z AUTO 30006KT 260V340 9999 BKN056 OVC061 12/09 Q0998 BLU TEMPO FEW015 SCT020CB
EHWO - Steenbergen
Gewijzigd: 28-09-2022 15:40
Bewolking  
Bewolking  
   Wind: WNW 11.1 km/h
Wind: WNW 11.1 km/h
Temperatuur: 12°C
Dauwpunt: 9°C
Vochtigheid: 82%
Barometer: 998 hPa
Bewolking: Bewolking
Zicht: meer dan 10 km
Bewolking: Grotendeels bewolkt 5600 ft,
Bewolking 6100 ft
EHWO 281340Z AUTO 30006KT 260V340 9999 BKN056 OVC061 12/09 Q0998 BLU TEMPO FEW015 SCT020CB
EHWO - Oud-Gastel
Gewijzigd: 28-09-2022 15:40
Bewolking  
Bewolking  
   Wind: WNW 11.1 km/h
Wind: WNW 11.1 km/h
Temperatuur: 12°C
Dauwpunt: 9°C
Vochtigheid: 82%
Barometer: 998 hPa
Bewolking: Bewolking
Zicht: meer dan 10 km
Bewolking: Grotendeels bewolkt 5600 ft,
Bewolking 6100 ft
EHWO 281340Z AUTO 30006KT 260V340 9999 BKN056 OVC061 12/09 Q0998 BLU TEMPO FEW015 SCT020CB
EHWO - Oudenbosch
Gewijzigd: 28-09-2022 15:40
Bewolking  
Bewolking  
   Wind: WNW 11.1 km/h
Wind: WNW 11.1 km/h
Temperatuur: 12°C
Dauwpunt: 9°C
Vochtigheid: 82%
Barometer: 998 hPa
Bewolking: Bewolking
Zicht: meer dan 10 km
Bewolking: Grotendeels bewolkt 5600 ft,
Bewolking 6100 ft
EHWO 281340Z AUTO 30006KT 260V340 9999 BKN056 OVC061 12/09 Q0998 BLU TEMPO FEW015 SCT020CB
EHWO - Rucphen
Gewijzigd: 28-09-2022 15:40
Bewolking  
Bewolking  
   Wind: WNW 11.1 km/h
Wind: WNW 11.1 km/h
Temperatuur: 12°C
Dauwpunt: 9°C
Vochtigheid: 82%
Barometer: 998 hPa
Bewolking: Bewolking
Zicht: meer dan 10 km
Bewolking: Grotendeels bewolkt 5600 ft,
Bewolking 6100 ft
EHWO 281340Z AUTO 30006KT 260V340 9999 BKN056 OVC061 12/09 Q0998 BLU TEMPO FEW015 SCT020CB
EHWO - Bergen op Zoom
Gewijzigd: 28-09-2022 15:40
Bewolking  
Bewolking  
   Wind: WNW 11.1 km/h
Wind: WNW 11.1 km/h
Temperatuur: 12°C
Dauwpunt: 9°C
Vochtigheid: 82%
Barometer: 998 hPa
Bewolking: Bewolking
Zicht: meer dan 10 km
Bewolking: Grotendeels bewolkt 5600 ft,
Bewolking 6100 ft
EHWO 281340Z AUTO 30006KT 260V340 9999 BKN056 OVC061 12/09 Q0998 BLU TEMPO FEW015 SCT020CB
EHWO - Fijnaart
Gewijzigd: 28-09-2022 15:40
Bewolking  
Bewolking  
   Wind: WNW 11.1 km/h
Wind: WNW 11.1 km/h
Temperatuur: 12°C
Dauwpunt: 9°C
Vochtigheid: 82%
Barometer: 998 hPa
Bewolking: Bewolking
Zicht: meer dan 10 km
Bewolking: Grotendeels bewolkt 5600 ft,
Bewolking 6100 ft
EHWO 281340Z AUTO 30006KT 260V340 9999 BKN056 OVC061 12/09 Q0998 BLU TEMPO FEW015 SCT020CB
EHWO - Ossendrecht
Gewijzigd: 28-09-2022 15:40
Bewolking  
Bewolking  
   Wind: WNW 11.1 km/h
Wind: WNW 11.1 km/h
Temperatuur: 12°C
Dauwpunt: 9°C
Vochtigheid: 82%
Barometer: 998 hPa
Bewolking: Bewolking
Zicht: meer dan 10 km
Bewolking: Grotendeels bewolkt 5600 ft,
Bewolking 6100 ft
EHWO 281340Z AUTO 30006KT 260V340 9999 BKN056 OVC061 12/09 Q0998 BLU TEMPO FEW015 SCT020CB

Script ontwikkeld door  Saratoga-weather.org Aangepast voor de template door  Weerstation Leuven

Apparatuur in gebruik:

Weerstation
Davis VP2

Weerprogramma
Weather Display

Weercomputer
Shuttle

Webleverancier
WeservIT

Davis VP2

Weather Display

Shuttle

WeservIT